Time;durP1;ratioP1;P1;durP2;ratioP2;P2;SDS_P1;SDS_P2;PMS_P1;PMS_P2;Temp;Humidity;BMP_temperature;BMP_pressure;BME280_temperature;BME280_humidity;BME280_pressure;Samples;Min_cycle;Max_cycle;Signal;HPM_P1;HPM_P2
2022/12/11 00:01:51;;;;;;;30.50;13.87;;;0.60;99.90;;;;;;5005787;28;20216;-64
2022/12/11 00:04:18;;;;;;;25.53;12.80;;;0.60;99.90;;;;;;4989355;28;20825;-64
2022/12/11 00:06:45;;;;;;;24.73;12.33;;;0.60;99.90;;;;;;5018370;28;20193;-64
2022/12/11 00:09:12;;;;;;;17.73;10.87;;;0.50;99.90;;;;;;5013048;28;20687;-64
2022/12/11 00:11:39;;;;;;;18.87;10.20;;;0.50;99.90;;;;;;5009399;28;20233;-63
2022/12/11 00:14:06;;;;;;;19.13;10.70;;;0.50;99.90;;;;;;5009837;28;20327;-64
2022/12/11 00:16:33;;;;;;;16.30;10.17;;;0.50;99.90;;;;;;5014265;28;20203;-64
2022/12/11 00:19:01;;;;;;;21.83;10.70;;;0.50;99.90;;;;;;4992519;28;20214;-64
2022/12/11 00:21:28;;;;;;;19.00;10.27;;;0.40;99.90;;;;;;5021265;28;20199;-64
2022/12/11 00:23:55;;;;;;;20.70;10.60;;;0.50;99.90;;;;;;5008717;28;20200;-64
2022/12/11 00:26:22;;;;;;;22.30;10.63;;;0.50;99.90;;;;;;5017927;28;20230;-64
2022/12/11 00:28:52;;;;;;;19.20;10.17;;;0.50;99.90;;;;;;5013721;28;20209;-64
2022/12/11 00:31:20;;;;;;;19.90;10.83;;;0.50;99.90;;;;;;5027485;28;20541;-64
2022/12/11 00:33:48;;;;;;;21.97;12.00;;;0.50;99.90;;;;;;5024648;28;20193;-64
2022/12/11 00:36:19;;;;;;;19.23;11.47;;;0.60;99.90;;;;;;4995243;28;20277;-64
2022/12/11 00:38:46;;;;;;;20.53;10.30;;;0.60;99.90;;;;;;5021517;28;20319;-64
2022/12/11 00:41:12;;;;;;;16.90;9.97;;;0.50;99.90;;;;;;5004171;28;20601;-64
2022/12/11 00:43:39;;;;;;;22.10;10.13;;;0.50;99.90;;;;;;5026543;28;20216;-64
2022/12/11 00:46:06;;;;;;;19.03;9.30;;;0.40;99.90;;;;;;5013406;28;20272;-63
2022/12/11 00:48:33;;;;;;;15.73;8.83;;;0.40;99.90;;;;;;5020743;28;20699;-64
2022/12/11 00:51:00;;;;;;;15.90;9.57;;;0.40;99.90;;;;;;4998342;28;20241;-64
2022/12/11 00:53:28;;;;;;;16.93;10.63;;;0.40;99.90;;;;;;5028701;28;20362;-64
2022/12/11 00:55:55;;;;;;;16.40;9.47;;;0.40;99.90;;;;;;5012321;28;20198;-64
2022/12/11 00:58:22;;;;;;;18.20;10.80;;;0.40;99.90;;;;;;5011656;28;20405;-64
2022/12/11 01:00:49;;;;;;;26.57;12.17;;;0.40;99.90;;;;;;5006567;28;20202;-64
2022/12/11 01:03:17;;;;;;;32.80;13.13;;;0.40;99.90;;;;;;5026375;28;20225;-64
2022/12/11 01:05:52;;;;;;;24.70;12.37;;;0.40;99.90;;;;;;5028058;28;20754;-64
2022/12/11 01:08:19;;;;;;;20.90;10.83;;;0.40;99.90;;;;;;4995332;28;20209;-64
2022/12/11 01:10:46;;;;;;;17.80;9.87;;;0.40;99.90;;;;;;5009979;28;20230;-64
2022/12/11 01:13:13;;;;;;;18.93;10.03;;;0.40;99.90;;;;;;5015663;28;20209;-64
2022/12/11 01:15:41;;;;;;;19.13;10.43;;;0.40;99.90;;;;;;5014754;28;20982;-64
2022/12/11 01:18:09;;;;;;;20.10;10.33;;;0.40;99.90;;;;;;5017857;28;20666;-64
2022/12/11 01:20:38;;;;;;;18.73;11.07;;;0.40;99.90;;;;;;5014920;28;20193;-64
2022/12/11 01:23:05;;;;;;;20.03;10.73;;;0.40;99.90;;;;;;4996921;28;20207;-64
2022/12/11 01:25:32;;;;;;;16.27;10.67;;;0.50;99.90;;;;;;5006500;28;20399;-64
2022/12/11 01:28:01;;;;;;;16.80;8.83;;;0.50;99.90;;;;;;5010930;28;20689;-64
2022/12/11 01:30:27;;;;;;;18.40;9.90;;;0.50;99.90;;;;;;5013858;28;20214;-65
2022/12/11 01:32:54;;;;;;;17.63;10.13;;;0.50;99.90;;;;;;5025829;28;20208;-63
2022/12/11 01:35:21;;;;;;;16.60;9.97;;;0.60;99.90;;;;;;5023306;28;21640;-64
2022/12/11 01:37:48;;;;;;;17.97;10.33;;;0.50;99.90;;;;;;4991599;28;27101;-64
2022/12/11 01:40:16;;;;;;;18.27;10.67;;;0.40;99.90;;;;;;5013392;28;20720;-64
2022/12/11 01:42:43;;;;;;;16.90;10.03;;;0.40;99.90;;;;;;5023695;28;20198;-64
2022/12/11 01:45:43;;;;;;;20.50;10.53;;;0.40;99.90;;;;;;5015775;28;20257;-64
2022/12/11 01:48:12;;;;;;;18.27;10.30;;;0.50;99.90;;;;;;5026359;28;20202;-64
2022/12/11 01:50:44;;;;;;;18.13;10.30;;;0.40;99.90;;;;;;5018933;28;20198;-64
2022/12/11 01:53:17;;;;;;;16.77;10.67;;;0.50;99.90;;;;;;5022812;28;20210;-64
2022/12/11 01:55:46;;;;;;;16.67;10.23;;;0.40;99.90;;;;;;4968976;28;20636;-64
2022/12/11 01:58:14;;;;;;;17.93;9.77;;;0.40;99.90;;;;;;5027766;28;20202;-64
2022/12/11 02:00:42;;;;;;;14.53;9.13;;;0.40;99.90;;;;;;5003214;28;20519;-63
2022/12/11 02:03:09;;;;;;;15.53;9.40;;;0.50;99.90;;;;;;5012269;28;20208;-63
2022/12/11 02:05:36;;;;;;;16.73;9.83;;;0.50;99.90;;;;;;5024694;28;20657;-63
2022/12/11 02:08:04;;;;;;;16.43;9.70;;;0.40;99.90;;;;;;5025480;28;20264;-64
2022/12/11 02:10:43;;;;;;;19.87;10.70;;;0.40;99.90;;;;;;4989880;28;20210;-64
2022/12/11 02:13:15;;;;;;;16.63;10.10;;;0.40;99.90;;;;;;5022870;28;20202;-64
2022/12/11 02:15:49;;;;;;;18.83;10.33;;;0.30;99.90;;;;;;5000848;28;20202;-64
2022/12/11 02:18:25;;;;;;;20.23;10.20;;;0.30;99.90;;;;;;5007391;28;20644;-64
2022/12/11 02:20:57;;;;;;;15.70;9.70;;;0.40;99.90;;;;;;5020524;28;20409;-64
2022/12/11 02:23:43;;;;;;;19.43;9.37;;;0.40;99.90;;;;;;5027804;28;20195;-63
2022/12/11 02:26:24;;;;;;;18.40;10.23;;;0.40;99.90;;;;;;4986892;28;20747;-64
2022/12/11 02:28:56;;;;;;;16.77;9.37;;;0.40;99.90;;;;;;5024103;28;20201;-64
2022/12/11 02:31:27;;;;;;;16.13;9.77;;;0.40;99.90;;;;;;5016032;28;20218;-63
2022/12/11 02:34:01;;;;;;;16.73;9.77;;;0.40;99.90;;;;;;5005723;28;21066;-63
2022/12/11 02:36:33;;;;;;;16.40;9.13;;;0.30;99.90;;;;;;5023663;28;20197;-63
2022/12/11 02:39:02;;;;;;;18.07;9.83;;;0.40;99.90;;;;;;5027678;28;20221;-63
2022/12/11 02:41:30;;;;;;;16.87;9.70;;;0.40;99.90;;;;;;4987462;28;20683;-64
2022/12/11 02:44:00;;;;;;;17.30;9.23;;;0.40;99.90;;;;;;5013283;28;20408;-64
2022/12/11 02:46:28;;;;;;;17.40;9.43;;;0.30;99.90;;;;;;5008947;28;20205;-63
2022/12/11 02:48:56;;;;;;;16.70;9.60;;;0.40;99.90;;;;;;5002218;28;20643;-64
2022/12/11 02:51:26;;;;;;;18.53;10.47;;;0.40;99.90;;;;;;5021064;28;20222;-63
2022/12/11 02:53:56;;;;;;;17.97;9.73;;;0.40;99.90;;;;;;5016570;28;20420;-64
2022/12/11 02:56:29;;;;;;;16.70;9.50;;;0.40;99.90;;;;;;4984482;28;20495;-64
2022/12/11 02:59:01;;;;;;;19.57;10.50;;;0.30;99.90;;;;;;5007790;28;20209;-64
2022/12/11 03:01:27;;;;;;;19.00;9.50;;;0.40;99.90;;;;;;5002701;28;20202;-64
2022/12/11 03:03:55;;;;;;;16.70;9.37;;;0.30;99.90;;;;;;5004269;28;20213;-64
2022/12/11 03:06:26;;;;;;;17.23;9.63;;;0.40;99.90;;;;;;5016978;28;20203;-63
2022/12/11 03:08:53;;;;;;;16.40;9.37;;;0.30;99.90;;;;;;5019058;28;20202;-64
2022/12/11 03:11:20;;;;;;;20.10;10.47;;;0.30;99.90;;;;;;4994774;28;20987;-64
2022/12/11 03:13:47;;;;;;;22.73;10.53;;;0.30;99.90;;;;;;5009380;28;20206;-64
2022/12/11 03:16:28;;;;;;;19.37;9.77;;;0.40;99.90;;;;;;5004818;28;20279;-64
2022/12/11 03:19:01;;;;;;;22.10;10.50;;;0.40;99.90;;;;;;5003632;28;20210;-64
2022/12/11 03:21:34;;;;;;;16.27;9.73;;;0.40;99.90;;;;;;5019397;28;20202;-64
2022/12/11 03:24:05;;;;;;;18.90;10.17;;;0.40;99.90;;;;;;5025867;28;20544;-63
2022/12/11 03:26:37;;;;;;;15.40;9.43;;;0.40;99.90;;;;;;4988361;28;20702;-64
2022/12/11 03:29:10;;;;;;;17.70;10.00;;;0.40;99.90;;;;;;5008262;28;20190;-63
2022/12/11 03:31:42;;;;;;;17.67;9.97;;;0.40;99.90;;;;;;5020231;28;20220;-64
2022/12/11 03:34:13;;;;;;;19.07;9.37;;;0.40;99.90;;;;;;4994967;28;21615;-64
2022/12/11 03:36:42;;;;;;;18.17;9.70;;;0.30;99.90;;;;;;5009561;28;20205;-64
2022/12/11 03:39:13;;;;;;;15.33;8.87;;;0.30;99.90;;;;;;5016309;28;20272;-63
2022/12/11 03:41:42;;;;;;;16.97;9.37;;;0.30;99.90;;;;;;5015634;28;20205;-64
2022/12/11 03:44:09;;;;;;;17.57;9.97;;;0.30;99.90;;;;;;4987937;28;20281;-63
2022/12/11 03:46:40;;;;;;;13.37;8.83;;;0.40;99.90;;;;;;5018361;28;20210;-64
2022/12/11 03:49:14;;;;;;;16.10;9.87;;;0.40;99.90;;;;;;5007777;28;20765;-64
2022/12/11 03:51:42;;;;;;;17.40;9.20;;;0.30;99.90;;;;;;5010322;28;20230;-63
2022/12/11 03:54:11;;;;;;;17.00;10.30;;;0.40;99.90;;;;;;5020762;28;20199;-63
2022/12/11 03:56:39;;;;;;;15.73;9.70;;;0.40;99.90;;;;;;5015128;28;20674;-64
2022/12/11 03:59:06;;;;;;;17.63;10.17;;;0.40;99.90;;;;;;4990431;28;20345;-64
2022/12/11 04:01:33;;;;;;;19.37;10.57;;;0.30;99.90;;;;;;5009867;28;20198;-63
2022/12/11 04:04:01;;;;;;;16.60;9.43;;;0.40;99.90;;;;;;5008937;28;20197;-64
2022/12/11 04:06:28;;;;;;;22.07;10.00;;;0.30;99.90;;;;;;5011889;28;20205;-64
2022/12/11 04:08:54;;;;;;;20.10;11.10;;;0.40;99.90;;;;;;5025941;28;21023;-63
2022/12/11 04:11:37;;;;;;;16.27;9.77;;;0.40;99.90;;;;;;5023318;28;20672;-64
2022/12/11 04:16:50;;;;;;;19.40;10.83;;;0.40;99.90;;;;;;5005537;28;21052;-63
2022/12/11 04:24:49;;;;;;;15.27;9.30;;;0.40;99.90;;;;;;5023532;28;20280;-63
2022/12/11 04:27:47;;;;;;;16.33;10.17;;;0.40;99.90;;;;;;5017541;28;20243;-63
2022/12/11 04:30:05;;;;;;;18.33;10.23;;;0.40;99.90;;;;;;4989305;28;20974;-63
2022/12/11 04:32:32;;;;;;;17.53;10.00;;;0.40;99.90;;;;;;5011370;28;20910;-63
2022/12/11 04:35:00;;;;;;;16.10;9.93;;;0.40;99.90;;;;;;5007214;28;20213;-63
2022/12/11 04:37:27;;;;;;;20.07;10.70;;;0.40;99.90;;;;;;5010345;28;20206;-63
2022/12/11 04:39:54;;;;;;;21.87;10.63;;;0.40;99.90;;;;;;5010620;28;20201;-63
2022/12/11 04:42:21;;;;;;;19.20;9.77;;;0.30;99.90;;;;;;5021006;28;20559;-63
2022/12/11 04:44:48;;;;;;;18.43;10.13;;;0.30;99.90;;;;;;4992476;28;20202;-63
2022/12/11 04:47:14;;;;;;;16.90;10.27;;;0.40;99.90;;;;;;5010825;28;20792;-64
2022/12/11 04:49:41;;;;;;;19.17;10.17;;;0.50;99.90;;;;;;5023720;28;20194;-63
2022/12/11 04:52:10;;;;;;;16.87;10.10;;;0.50;99.90;;;;;;5010422;28;20422;-63
2022/12/11 04:54:36;;;;;;;20.27;9.83;;;0.50;99.90;;;;;;5022299;28;20201;-63
2022/12/11 04:57:03;;;;;;;17.37;9.90;;;0.40;99.90;;;;;;5012954;28;20218;-63
2022/12/11 04:59:31;;;;;;;18.97;9.97;;;0.50;99.90;;;;;;4992823;28;20482;-64
2022/12/11 05:01:58;;;;;;;18.07;9.73;;;0.50;99.90;;;;;;5019176;28;20201;-63
2022/12/11 05:04:25;;;;;;;17.10;9.63;;;0.40;99.90;;;;;;5008412;28;20780;-64
2022/12/11 05:06:52;;;;;;;17.70;9.50;;;0.30;99.90;;;;;;5023240;28;20194;-63
2022/12/11 05:09:20;;;;;;;17.03;9.93;;;0.40;99.90;;;;;;5005925;28;20210;-63
2022/12/11 05:11:47;;;;;;;19.77;9.63;;;0.40;99.90;;;;;;5017629;28;20288;-63
2022/12/11 05:14:14;;;;;;;14.83;9.57;;;0.40;99.90;;;;;;5007325;28;20206;-64
2022/12/11 05:16:41;;;;;;;17.73;9.50;;;0.40;99.90;;;;;;5010055;28;20788;-63
2022/12/11 05:19:07;;;;;;;19.03;9.80;;;0.40;99.90;;;;;;5012251;28;20793;-63
2022/12/11 05:21:34;;;;;;;18.70;9.87;;;0.30;99.90;;;;;;5020387;28;20901;-63
2022/12/11 05:24:01;;;;;;;16.40;10.20;;;0.30;99.90;;;;;;5019485;28;20554;-63
2022/12/11 05:26:29;;;;;;;15.40;9.10;;;0.30;99.90;;;;;;5020856;28;20391;-63
2022/12/11 05:28:56;;;;;;;17.67;10.03;;;0.30;99.90;;;;;;5026306;28;20208;-63
2022/12/11 05:31:25;;;;;;;19.13;10.37;;;0.30;99.90;;;;;;4997506;28;20208;-63
2022/12/11 05:33:53;;;;;;;18.17;9.70;;;0.30;99.90;;;;;;5012290;28;20230;-63
2022/12/11 05:36:22;;;;;;;17.23;9.43;;;0.30;99.90;;;;;;5019383;28;20202;-63
2022/12/11 05:38:49;;;;;;;18.10;9.67;;;0.30;99.90;;;;;;5008536;28;20694;-63
2022/12/11 05:41:18;;;;;;;18.73;9.60;;;0.30;99.90;;;;;;5011428;28;20204;-64
2022/12/11 05:43:47;;;;;;;19.20;10.17;;;0.30;99.90;;;;;;5020809;28;20205;-63
2022/12/11 05:46:16;;;;;;;16.87;10.10;;;0.30;99.90;;;;;;4999023;28;20216;-63
2022/12/11 05:48:44;;;;;;;18.23;9.13;;;0.30;99.90;;;;;;5016819;28;20206;-64
2022/12/11 05:51:12;;;;;;;20.17;10.57;;;0.40;99.90;;;;;;5031627;28;20884;-64
2022/12/11 05:53:41;;;;;;;18.23;10.60;;;0.30;99.90;;;;;;5023054;28;20221;-63
2022/12/11 05:56:10;;;;;;;21.17;10.10;;;0.40;99.90;;;;;;5015506;28;20205;-63
2022/12/11 05:58:38;;;;;;;19.50;9.83;;;0.40;99.90;;;;;;5026792;28;20288;-63
2022/12/11 06:01:09;;;;;;;17.73;10.10;;;0.30;99.90;;;;;;4984822;28;20223;-63
2022/12/11 06:03:36;;;;;;;17.80;9.70;;;0.40;99.90;;;;;;5024983;28;20430;-63
2022/12/11 06:06:03;;;;;;;20.10;10.77;;;0.40;99.90;;;;;;5009019;28;20330;-63
2022/12/11 06:08:30;;;;;;;18.27;9.93;;;0.30;99.90;;;;;;5018817;28;20212;-63
2022/12/11 06:10:58;;;;;;;18.07;10.13;;;0.30;99.90;;;;;;5008173;28;20428;-63
2022/12/11 06:13:25;;;;;;;18.03;10.27;;;0.30;99.90;;;;;;5026813;28;20803;-63
2022/12/11 06:15:52;;;;;;;19.87;10.77;;;0.30;99.90;;;;;;4982272;28;20335;-64
2022/12/11 06:18:20;;;;;;;18.50;10.67;;;0.30;99.90;;;;;;5024280;28;20198;-63
2022/12/11 06:20:46;;;;;;;15.27;8.87;;;0.30;99.90;;;;;;5006273;28;20906;-63
2022/12/11 06:23:13;;;;;;;20.67;8.83;;;0.30;99.90;;;;;;5028669;28;20198;-60
2022/12/11 06:25:40;;;;;;;19.20;10.10;;;0.20;99.90;;;;;;5000728;28;20214;-61
2022/12/11 06:28:07;;;;;;;19.93;10.53;;;0.30;99.90;;;;;;5027149;28;20194;-60
2022/12/11 06:30:34;;;;;;;20.23;9.60;;;0.30;99.90;;;;;;5021944;28;20366;-60
2022/12/11 06:33:00;;;;;;;15.27;9.07;;;0.30;99.90;;;;;;4995714;28;20761;-63
2022/12/11 06:35:29;;;;;;;20.63;10.37;;;0.30;99.90;;;;;;5018773;28;20590;-63
2022/12/11 06:37:55;;;;;;;18.73;9.77;;;0.30;99.90;;;;;;5007197;28;20732;-63
2022/12/11 06:40:22;;;;;;;19.57;10.70;;;0.30;99.90;;;;;;5023918;28;20199;-63
2022/12/11 06:42:49;;;;;;;19.03;9.97;;;0.30;99.90;;;;;;5010175;28;20209;-63
2022/12/11 06:45:16;;;;;;;18.67;8.93;;;0.30;99.90;;;;;;5025417;28;20200;-63
2022/12/11 06:47:42;;;;;;;18.50;10.50;;;0.30;99.90;;;;;;4993799;28;20666;-64
2022/12/11 06:50:10;;;;;;;17.90;9.43;;;0.30;99.90;;;;;;5015863;28;20293;-63
2022/12/11 06:52:38;;;;;;;18.00;10.83;;;0.30;99.90;;;;;;5014030;28;20246;-63
2022/12/11 06:55:06;;;;;;;20.53;10.40;;;0.20;99.90;;;;;;5027981;28;20244;-63
2022/12/11 06:57:33;;;;;;;21.73;11.30;;;0.20;99.90;;;;;;5012510;28;20573;-63
2022/12/11 07:00:00;;;;;;;18.10;9.93;;;0.20;99.90;;;;;;5023169;28;21300;-63
2022/12/11 07:02:27;;;;;;;16.00;9.77;;;0.20;99.90;;;;;;5026739;28;20221;-63
2022/12/11 07:04:53;;;;;;;22.27;10.70;;;0.20;99.90;;;;;;4993134;28;20233;-63
2022/12/11 07:07:20;;;;;;;19.63;9.67;;;0.20;99.90;;;;;;5007393;28;20242;-64
2022/12/11 07:09:48;;;;;;;17.27;9.03;;;0.20;99.90;;;;;;5020927;28;20205;-63
2022/12/11 07:12:16;;;;;;;21.33;10.77;;;0.20;99.90;;;;;;5023801;28;20213;-63
2022/12/11 07:14:43;;;;;;;18.93;10.97;;;0.20;99.90;;;;;;5011758;28;20213;-63
2022/12/11 07:17:10;;;;;;;16.27;9.60;;;0.20;99.90;;;;;;5020845;28;20306;-63
2022/12/11 07:19:37;;;;;;;19.30;10.13;;;0.20;99.90;;;;;;5010069;28;20194;-63
2022/12/11 07:22:05;;;;;;;21.77;10.80;;;0.20;99.90;;;;;;4999034;28;20731;-62
2022/12/11 07:24:31;;;;;;;21.80;10.43;;;0.10;99.90;;;;;;5027847;28;20201;-63
2022/12/11 07:27:00;;;;;;;18.20;9.70;;;0.20;99.90;;;;;;5021168;28;20243;-63
2022/12/11 07:29:26;;;;;;;20.93;10.80;;;0.20;99.90;;;;;;5012516;28;20214;-63
2022/12/11 07:31:53;;;;;;;18.13;9.77;;;0.20;99.90;;;;;;5010851;28;20320;-63
2022/12/11 07:34:20;;;;;;;19.73;9.60;;;0.20;99.90;;;;;;5017461;28;21021;-63
2022/12/11 07:36:47;;;;;;;25.93;11.53;;;0.20;99.90;;;;;;4988919;28;20716;-63
2022/12/11 07:39:14;;;;;;;17.77;9.73;;;0.20;99.90;;;;;;5009029;28;20195;-63
2022/12/11 07:41:40;;;;;;;19.10;11.00;;;0.20;99.90;;;;;;5016718;28;20193;-63
2022/12/11 07:44:10;;;;;;;17.87;10.17;;;0.20;99.90;;;;;;5010766;28;20210;-63
2022/12/11 07:46:37;;;;;;;18.87;10.93;;;0.20;99.90;;;;;;5020811;28;20625;-63
2022/12/11 07:49:06;;;;;;;20.00;10.93;;;0.10;99.90;;;;;;5023191;28;20213;-63
2022/12/11 07:51:34;;;;;;;19.87;10.07;;;0.20;99.90;;;;;;4986077;28;20213;-63
2022/12/11 07:54:03;;;;;;;18.17;10.33;;;0.20;99.90;;;;;;5016635;28;21028;-63
2022/12/11 07:56:32;;;;;;;20.63;10.03;;;0.20;99.90;;;;;;5025055;28;20199;-63
2022/12/11 07:59:00;;;;;;;19.93;10.17;;;0.20;99.90;;;;;;5006263;28;20214;-63
2022/12/11 08:01:30;;;;;;;18.73;10.63;;;0.20;99.90;;;;;;5022642;28;20216;-63
2022/12/11 08:03:57;;;;;;;17.93;10.37;;;0.20;99.90;;;;;;5002816;28;20208;-62
2022/12/11 08:06:27;;;;;;;20.00;10.63;;;0.20;99.90;;;;;;4987247;28;20719;-63
2022/12/11 08:08:54;;;;;;;20.83;9.67;;;0.20;99.90;;;;;;5012553;28;20220;-63
2022/12/11 08:11:21;;;;;;;21.53;10.57;;;0.10;99.90;;;;;;5003998;28;21393;-63
2022/12/11 08:13:48;;;;;;;18.70;10.43;;;0.20;99.90;;;;;;5004169;28;20229;-63
2022/12/11 08:16:16;;;;;;;19.03;9.57;;;0.20;99.90;;;;;;5006594;28;20212;-63
2022/12/11 08:18:46;;;;;;;20.37;12.00;;;0.10;99.90;;;;;;5003923;28;20201;-63
2022/12/11 08:21:15;;;;;;;19.30;10.47;;;0.20;99.90;;;;;;4983104;28;20220;-63
2022/12/11 08:23:42;;;;;;;17.30;10.03;;;0.10;99.90;;;;;;5016677;28;20575;-63
2022/12/11 08:26:11;;;;;;;20.37;12.07;;;0.20;99.90;;;;;;5007078;28;20243;-63
2022/12/11 08:28:38;;;;;;;20.80;11.83;;;0.10;99.90;;;;;;4998570;28;20232;-63
2022/12/11 08:31:06;;;;;;;20.83;10.43;;;0.10;99.90;;;;;;5019474;28;20204;-63
2022/12/11 08:33:33;;;;;;;18.53;10.23;;;0.20;99.90;;;;;;4994807;28;20237;-63
2022/12/11 08:36:03;;;;;;;22.43;11.30;;;0.10;99.90;;;;;;5006592;28;20195;-63
2022/12/11 08:38:30;;;;;;;25.17;10.13;;;0.20;99.90;;;;;;5009021;28;20224;-63
2022/12/11 08:40:57;;;;;;;20.93;10.83;;;0.20;99.90;;;;;;5010619;28;20225;-63
2022/12/11 08:43:24;;;;;;;18.70;10.23;;;0.20;99.90;;;;;;5014439;28;20213;-63
2022/12/11 08:45:51;;;;;;;25.23;11.97;;;0.20;99.90;;;;;;5032881;28;20194;-63
2022/12/11 08:48:18;;;;;;;20.87;11.37;;;0.20;99.90;;;;;;5027003;28;20215;-63
2022/12/11 08:50:45;;;;;;;22.60;10.70;;;0.20;99.90;;;;;;5010223;28;20205;-62
2022/12/11 08:53:13;;;;;;;24.63;11.63;;;0.20;99.90;;;;;;4994160;28;20238;-63
2022/12/11 08:55:40;;;;;;;21.90;11.30;;;0.20;99.90;;;;;;5001362;28;20249;-62
2022/12/11 08:58:07;;;;;;;21.87;11.37;;;0.20;99.90;;;;;;5024419;28;20750;-62
2022/12/11 09:00:34;;;;;;;23.30;11.73;;;0.20;99.90;;;;;;5014384;28;20226;-62
2022/12/11 09:03:01;;;;;;;24.30;11.93;;;0.20;99.90;;;;;;5012656;28;20216;-63
2022/12/11 09:05:28;;;;;;;28.60;12.60;;;0.20;99.90;;;;;;5000180;28;20218;-63
2022/12/11 09:07:54;;;;;;;24.60;11.53;;;0.20;99.90;;;;;;4980458;28;20240;-63
2022/12/11 09:10:22;;;;;;;26.93;11.63;;;0.20;99.90;;;;;;5001634;28;20503;-63
2022/12/11 09:12:49;;;;;;;24.30;13.07;;;0.30;99.90;;;;;;5011111;28;20570;-63
2022/12/11 09:15:16;;;;;;;22.03;14.30;;;0.30;99.90;;;;;;4993151;28;20571;-63
2022/12/11 09:17:43;;;;;;;32.60;16.80;;;0.30;99.90;;;;;;5014274;28;20244;-63
2022/12/11 09:20:11;;;;;;;28.43;14.93;;;0.30;99.90;;;;;;5006167;28;20226;-63
2022/12/11 09:22:38;;;;;;;32.07;15.40;;;0.30;99.90;;;;;;4985705;28;20224;-63
2022/12/11 09:25:06;;;;;;;27.03;13.03;;;0.60;99.90;;;;;;5008253;28;20356;-63
2022/12/11 09:27:35;;;;;;;24.43;12.83;;;0.30;99.90;;;;;;5011471;28;20237;-63
2022/12/11 09:30:02;;;;;;;23.73;13.43;;;0.40;99.90;;;;;;5020355;28;20574;-63
2022/12/11 09:32:29;;;;;;;28.00;13.47;;;0.30;99.90;;;;;;5045066;22;20240;-63
2022/12/11 09:34:56;;;;;;;20.93;12.03;;;0.30;99.90;;;;;;5010322;28;20811;-64
2022/12/11 09:37:23;;;;;;;22.90;12.87;;;0.30;99.90;;;;;;5010456;28;20653;-63
2022/12/11 09:39:50;;;;;;;32.40;13.17;;;0.40;99.90;;;;;;4992362;28;20260;-63
2022/12/11 09:42:24;;;;;;;25.47;12.23;;;0.90;99.90;;;;;;5001296;28;20213;-63
2022/12/11 09:44:55;;;;;;;43.77;19.67;;;0.40;99.90;;;;;;5015758;28;20595;-63
2022/12/11 09:47:26;;;;;;;37.00;18.13;;;0.40;99.90;;;;;;5004441;28;20225;-63
2022/12/11 09:50:02;;;;;;;33.23;15.93;;;0.40;99.90;;;;;;4999363;28;23046;-63
2022/12/11 09:52:34;;;;;;;24.07;12.57;;;0.40;99.90;;;;;;4979824;28;21389;-62
2022/12/11 09:55:04;;;;;;;32.10;15.87;;;0.40;99.90;;;;;;4980420;28;20221;-63
2022/12/11 09:57:43;;;;;;;25.63;13.63;;;0.40;99.90;;;;;;4996021;28;20438;-63
2022/12/11 10:00:21;;;;;;;25.37;13.83;;;0.40;99.90;;;;;;5014991;28;20197;-63
2022/12/11 10:03:24;;;;;;;24.40;11.93;;;0.40;99.90;;;;;;5000513;28;20227;-63
2022/12/11 10:06:00;;;;;;;25.27;10.70;;;0.40;99.90;;;;;;4969887;28;20579;-63
2022/12/11 10:08:35;;;;;;;25.40;11.27;;;0.40;99.90;;;;;;4973765;28;20211;-63
2022/12/11 10:11:22;;;;;;;18.73;10.60;;;0.40;99.90;;;;;;5024386;28;20204;-63
2022/12/11 10:13:57;;;;;;;20.63;11.57;;;0.40;99.90;;;;;;5010723;28;20221;-63
2022/12/11 10:16:35;;;;;;;14.00;7.33;;;0.30;99.90;;;;;;5009585;28;20213;-63
2022/12/11 10:19:02;;;;;;;23.97;11.57;;;0.70;99.90;;;;;;4999785;28;20218;-63
2022/12/11 10:21:39;;;;;;;22.97;12.30;;;0.90;99.90;;;;;;5006001;28;20240;-63
2022/12/11 10:24:14;;;;;;;22.70;12.37;;;1.40;99.90;;;;;;4994965;28;20216;-63
2022/12/11 10:26:41;;;;;;;23.03;12.27;;;1.90;99.90;;;;;;5017843;28;20239;-64
2022/12/11 10:29:14;;;;;;;18.33;10.40;;;2.40;99.90;;;;;;5000701;28;20233;-63
2022/12/11 10:31:49;;;;;;;19.57;10.73;;;1.90;99.90;;;;;;5001053;28;20249;-64
2022/12/11 10:34:26;;;;;;;18.13;10.40;;;1.60;99.90;;;;;;4984854;28;20309;-63
2022/12/11 10:36:54;;;;;;;18.23;10.10;;;1.40;99.90;;;;;;4992833;28;20619;-64
2022/12/11 10:39:22;;;;;;;24.73;10.97;;;1.10;99.90;;;;;;4988971;28;20778;-63
2022/12/11 10:41:51;;;;;;;19.87;11.13;;;1.00;99.90;;;;;;5019226;28;20626;-63
2022/12/11 10:44:20;;;;;;;20.50;11.50;;;0.90;99.90;;;;;;5002888;28;20728;-64
2022/12/11 10:47:01;;;;;;;19.43;11.40;;;0.80;99.90;;;;;;5017728;28;20219;-63
2022/12/11 10:49:30;;;;;;;20.90;11.53;;;0.80;99.90;;;;;;4986206;28;20223;-62
2022/12/11 10:52:00;;;;;;;25.10;12.73;;;0.80;99.90;;;;;;4999320;28;20436;-62
2022/12/11 10:54:32;;;;;;;30.03;12.43;;;0.70;99.90;;;;;;4972056;28;20260;-62
2022/12/11 10:57:00;;;;;;;29.80;13.33;;;0.70;99.90;;;;;;5013291;28;20213;-62
2022/12/11 10:59:33;;;;;;;25.27;12.73;;;0.70;99.90;;;;;;4997390;28;21195;-63
2022/12/11 11:02:02;;;;;;;26.73;12.97;;;0.60;99.90;;;;;;5007819;28;20227;-63
2022/12/11 11:04:32;;;;;;;19.50;10.77;;;0.70;99.90;;;;;;4995817;28;20226;-62
2022/12/11 11:07:03;;;;;;;25.13;11.40;;;0.70;99.90;;;;;;5009063;28;20204;-62
2022/12/11 11:09:33;;;;;;;23.10;12.30;;;0.70;99.90;;;;;;4962201;28;20218;-64
2022/12/11 11:12:00;;;;;;;27.60;13.40;;;0.70;99.90;;;;;;5016202;28;20222;-62
2022/12/11 11:14:27;;;;;;;26.17;13.13;;;0.70;99.90;;;;;;5003036;28;20562;-63
2022/12/11 11:16:57;;;;;;;23.73;12.70;;;0.70;99.90;;;;;;5016247;28;20212;-63
2022/12/11 11:19:30;;;;;;;27.77;13.47;;;0.70;99.90;;;;;;4978607;28;20235;-63
2022/12/11 11:22:00;;;;;;;23.73;12.90;;;0.70;99.90;;;;;;5011899;28;20202;-63
2022/12/11 11:24:30;;;;;;;32.67;13.67;;;0.70;99.90;;;;;;4985477;28;20211;-62
2022/12/11 11:26:58;;;;;;;26.87;14.17;;;0.70;99.90;;;;;;5005996;28;20203;-62
2022/12/11 11:29:30;;;;;;;26.90;13.00;;;0.70;99.90;;;;;;5010051;28;20229;-62
2022/12/11 11:31:57;;;;;;;25.00;12.67;;;0.70;99.90;;;;;;5017251;28;20249;-62
2022/12/11 11:34:25;;;;;;;31.13;12.57;;;0.80;99.90;;;;;;5000705;28;20849;-62
2022/12/11 11:36:56;;;;;;;26.17;13.67;;;0.80;99.90;;;;;;5011556;28;20230;-63
2022/12/11 11:39:29;;;;;;;24.47;11.37;;;1.30;99.90;;;;;;5016520;28;20215;-63
2022/12/11 11:42:03;;;;;;;29.10;13.30;;;2.10;99.90;;;;;;4990008;28;20255;-63
2022/12/11 11:44:36;;;;;;;26.97;13.63;;;2.10;99.90;;;;;;5018917;28;20312;-62
2022/12/11 11:47:17;;;;;;;23.83;11.80;;;1.80;99.90;;;;;;5019487;22;20848;-63
2022/12/11 11:49:53;;;;;;;22.07;13.00;;;1.50;99.90;;;;;;5014769;28;20224;-63
2022/12/11 11:52:27;;;;;;;33.87;14.13;;;1.30;99.90;;;;;;5012009;28;20235;-63
2022/12/11 11:55:04;;;;;;;31.30;13.43;;;1.20;99.90;;;;;;5032309;22;20253;-63
2022/12/11 11:57:37;;;;;;;26.87;13.10;;;1.10;99.90;;;;;;5002817;28;20328;-63
2022/12/11 12:00:10;;;;;;;28.63;12.80;;;1.10;99.90;;;;;;5025721;28;20219;-63
2022/12/11 12:02:37;;;;;;;25.87;13.17;;;1.00;99.90;;;;;;5020183;28;20220;-62
2022/12/11 12:05:06;;;;;;;25.40;13.07;;;1.90;99.90;;;;;;5022160;28;20258;-62
2022/12/11 12:07:44;;;;;;;25.40;12.63;;;0.90;99.90;;;;;;5022000;28;20223;-62
2022/12/11 12:10:19;;;;;;;23.57;12.63;;;0.80;99.90;;;;;;5035671;28;20237;-63
2022/12/11 12:12:52;;;;;;;22.90;12.37;;;0.80;99.90;;;;;;5015958;22;20231;-62
2022/12/11 12:15:31;;;;;;;23.90;11.00;;;0.80;99.90;;;;;;4998143;28;20233;-63
2022/12/11 12:18:08;;;;;;;28.70;12.53;;;0.80;99.90;;;;;;5032682;22;20258;-62
2022/12/11 12:20:43;;;;;;;30.90;13.60;;;0.80;99.90;;;;;;5058417;28;20218;-63
2022/12/11 12:23:32;;;;;;;24.60;12.47;;;0.80;99.90;;;;;;5052503;28;20201;-62
2022/12/11 12:26:05;;;;;;;31.80;14.77;;;0.80;99.90;;;;;;5067874;28;20951;-63
2022/12/11 12:28:40;;;;;;;23.90;12.40;;;0.80;99.90;;;;;;5037543;28;20233;-63
2022/12/11 12:31:19;;;;;;;22.60;12.27;;;0.80;99.90;;;;;;5059713;28;20580;-63
2022/12/11 12:33:56;;;;;;;25.53;12.00;;;0.80;99.90;;;;;;5054065;28;20936;-63
2022/12/11 12:36:32;;;;;;;22.43;11.17;;;0.80;99.90;;;;;;5064722;28;20223;-63
2022/12/11 12:39:02;;;;;;;23.97;11.57;;;0.80;99.90;;;;;;5053573;28;20234;-62
2022/12/11 12:41:38;;;;;;;21.97;11.47;;;0.90;99.90;;;;;;5066730;28;20218;-63
2022/12/11 12:44:14;;;;;;;25.70;10.73;;;0.80;99.90;;;;;;5038572;28;20209;-62
2022/12/11 12:46:55;;;;;;;23.33;10.83;;;0.80;99.90;;;;;;5064662;28;20220;-62
2022/12/11 12:49:44;;;;;;;21.63;11.10;;;0.90;99.90;;;;;;5047035;28;20200;-62
2022/12/11 12:52:16;;;;;;;25.80;11.50;;;0.90;99.90;;;;;;5046016;28;20227;-62
2022/12/11 12:55:12;;;;;;;19.83;11.13;;;0.90;99.90;;;;;;5062015;28;20288;-62
2022/12/11 12:57:34;;;;;;;25.97;11.37;;;0.90;99.90;;;;;;5055454;28;20269;-63
2022/12/11 13:00:02;;;;;;;23.73;11.27;;;0.90;99.90;;;;;;5020170;28;20818;-63
2022/12/11 13:02:30;;;;;;;22.50;10.90;;;0.90;99.90;;;;;;5056237;28;20585;-62